Flight Track Log - Related Links

Times and Time Zones

All times are in EDT time to prevent confusion due to time zone crossing. See the UAL1071 flight status page for this flight to view local times or setup timezone preferences in your user account.

Time Position Orientation Groundspeed Altitude Reporting Facility
EDT Latitude Longitude Course Direction KTS MPH feet Rate Location/Type
Thu 09:19:09 PM 40.7333 -74.1333 123° Southeast 197 227 2,100  Level New TRACON
Thu 09:20:09 PM 40.7667 -74.2000 303° West 258 297 4,400 2,750 Climbing New TRACON
Thu 09:21:00 PM 40.3381 -74.1690 159° South  Level FlightAware
Thu 09:21:09 PM 40.7000 -74.2500 210° Southwest 289 333 7,600  Level New TRACON
Thu 09:22:00 PM 40.2128 -74.1500 180° South  Level FlightAware
Thu 09:22:09 PM 40.6333 -74.2667 191° South 289 333 10,800  Level New TRACON
Thu 09:23:00 PM 40.0848 -74.1500 180° South  Level FlightAware
Thu 09:23:09 PM 40.5500 -74.2500 171° South 304 350 13,200  Level New TRACON
Thu 09:24:00 PM 40.0369 -74.0070 123° Southeast  Level FlightAware
Thu 09:24:09 PM 40.4333 -74.2333 174° South 372 428 14,400  Level New TRACON
Thu 09:24:57 PM 40.3694 -74.2197 171° South 412 474 15,800 1,500 Climbing New Center
Thu 09:25:57 PM 40.2514 -74.1947 171° South 412 474 17,100 595 Climbing New Center
Thu 09:26:58 PM 40.1664 -74.1092 142° Southeast 390 449 17,000 300 Descending New Center
Thu 09:27:57 PM 40.1267 -73.9661 110° East 383 441 17,700 1,261 Climbing New Center
Thu 09:28:57 PM 40.0850 -73.8122 109° East 412 474 19,500 1,800 Climbing New Center
Thu 09:29:57 PM 40.0472 -73.6586 108° East 432 497 21,300 1,800 Climbing New Center
Thu 09:30:57 PM 40.0050 -73.5025 109° East 452 520 23,100 1,550 Climbing New Center
Thu 09:31:57 PM 39.9353 -73.3561 122° Southeast 464 534 24,400 1,350 Climbing New Center
Thu 09:32:57 PM 39.8242 -73.2925 156° South 468 539 25,800 1,400 Climbing New Center
Thu 09:33:57 PM 39.7008 -73.2072 152° Southeast 479 551 27,200 1,400 Climbing New Center
Thu 09:34:57 PM 39.5775 -73.1247 153° Southeast 489 563 28,600 1,050 Climbing New Center
Thu 09:35:57 PM 39.4522 -73.0344 151° Southeast 501 577 29,300 950 Climbing New Center
Thu 09:36:57 PM 39.3267 -72.9553 154° Southeast 506 582 30,500 1,400 Climbing New Center
Thu 09:37:57 PM 39.2031 -72.8711 152° Southeast 506 582 32,100 1,350 Climbing New Center
Thu 09:38:57 PM 39.0792 -72.7925 154° Southeast 501 577 33,200 950 Climbing New Center
Thu 09:39:57 PM 38.9536 -72.7114 153° Southeast 501 577 34,000 850 Climbing New Center
Thu 09:40:57 PM 38.8278 -72.6281 153° Southeast 506 582 34,900 450 Climbing New Center
Thu 09:41:57 PM 38.7017 -72.5478 154° Southeast 506 582 34,900  Level New Center
Thu 09:42:57 PM 38.5778 -72.4675 153° Southeast 506 582 34,900  Level New Center
Thu 09:43:57 PM 38.4558 -72.3850 152° Southeast 501 577 34,900  Level New Center
Thu 09:44:57 PM 38.3297 -72.3081 154° Southeast 506 582 34,900  Level New Center
Thu 09:45:57 PM 38.2036 -72.2314 154° Southeast 500 575 34,900  Level New Center
Thu 09:46:57 PM 38.0836 -72.1525 153° Southeast 500 575 34,900  Level New Center
Thu 09:47:57 PM 37.9633 -72.0789 154° Southeast 495 570 34,900  Level New Center
Thu 09:48:57 PM 37.8433 -71.9953 151° Southeast 484 557 34,900 50 Level New Center
Thu 09:49:57 PM 37.7253 -71.9250 155° Southeast 478 550 35,000  Climbing New Center
Thu 09:50:57 PM 37.6072 -71.8367 149° Southeast 473 544 34,900 -50 Descending New Center
Thu 09:51:57 PM 37.4847 -71.7614 154° Southeast 462 532 34,900  Level New Center
Thu 09:52:57 PM 37.3644 -71.7022 159° South 470 541 34,900 50 Level New Center
Thu 09:53:57 PM 37.2350 -71.6903 176° South 450 518 35,000 60 Climbing New Center
Thu 09:54:37 PM 37.4000 -71.7000 176° South 486 559 35,000 -50 Level New Oceanic
Thu 09:55:57 PM 36.9786 -71.6661 176° South 464 534 34,900  Descending New Center
Thu 09:56:57 PM 36.8494 -71.6489 174° South 474 545 35,000  Climbing New Center
Thu 09:57:57 PM 36.7139 -71.6369 176° South 474 545 34,900  Descending New Center
Thu 09:59:00 PM 36.5906 -71.6230 175° South  Level FlightAware
Thu 10:06:00 PM 35.7687 -71.5316 175° South  Level FlightAware
Thu 10:07:00 PM 35.6513 -71.5186 175° South  Level FlightAware
Thu 10:07:23 PM 35.6333 -71.5333 168° South 447 514 35,000  Level New Oceanic
Thu 10:08:00 PM 35.5356 -71.4911 168° South  Level FlightAware
Thu 10:09:00 PM 35.4203 -71.4611 168° South  Level FlightAware
Thu 10:10:00 PM 35.3050 -71.4311 168° South  Level FlightAware
Thu 10:11:00 PM 35.1897 -71.4012 168° South  Level FlightAware
Thu 10:12:00 PM 35.0743 -71.3714 168° South  Level FlightAware
Thu 10:13:00 PM 34.7823 -71.3165 168° South 447 514 35,000  Level FlightAware
Thu 10:14:00 PM 34.6607 -71.2859 168° South 447 514 35,000  Level FlightAware
Thu 10:15:00 PM 34.5391 -71.2554 168° South 447 514 35,000  Level FlightAware
Thu 10:16:00 PM 34.4174 -71.2249 168° South 447 514 35,000  Level FlightAware
Thu 10:17:00 PM 34.2958 -71.1946 168° South 447 514 35,000  Level FlightAware
Thu 10:18:00 PM 34.1742 -71.1644 168° South 447 514 35,000  Level FlightAware
Thu 10:19:00 PM 34.0525 -71.1342 168° South 447 514 35,000  Level FlightAware
Thu 10:20:00 PM 33.9309 -71.1041 168° South 447 514 35,000  Level FlightAware
Thu 10:21:00 PM 33.8092 -71.0741 168° South 447 514 35,000  Level FlightAware
Thu 10:22:00 PM 33.6876 -71.0442 168° South 447 514 35,000  Level FlightAware
Thu 10:23:00 PM 33.5659 -71.0144 168° South 447 514 35,000  Level FlightAware
Thu 10:24:00 PM 33.4442 -70.9846 168° South 447 514 35,000  Level FlightAware
Thu 10:25:00 PM 33.3225 -70.9550 169° South 447 514 35,000  Level FlightAware
Thu 10:26:00 PM 33.2008 -70.9254 169° South 447 514 35,000  Level FlightAware
Thu 10:27:00 PM 33.0791 -70.8959 169° South 447 514 35,000  Level FlightAware
Thu 10:28:00 PM 32.9574 -70.8665 169° South 447 514 35,000  Level FlightAware
Thu 10:29:00 PM 32.8357 -70.8372 169° South 447 514 35,000  Level FlightAware
Thu 10:30:00 PM 32.7140 -70.8079 169° South 447 514 35,000  Level FlightAware
Thu 10:31:00 PM 32.5922 -70.7787 169° South 447 514 35,000  Level FlightAware
Thu 10:32:00 PM 32.4705 -70.7496 169° South 447 514 35,000  Level FlightAware
Thu 10:33:00 PM 32.3488 -70.7206 169° South 447 514 35,000  Level FlightAware
Thu 10:34:00 PM 32.2270 -70.6917 169° South 447 514 35,000  Level FlightAware
Thu 10:35:00 PM 32.1053 -70.6628 169° South 447 514 35,000  Level FlightAware
Thu 10:36:00 PM 31.9835 -70.6341 169° South 447 514 35,000  Level FlightAware
Thu 10:37:00 PM 31.8617 -70.6054 169° South 447 514 35,000  Level FlightAware
Thu 10:38:00 PM 31.7400 -70.5767 169° South 447 514 35,000  Level FlightAware
Thu 10:39:00 PM 31.6182 -70.5482 169° South 447 514 35,000  Level FlightAware
Thu 10:40:00 PM 31.4964 -70.5197 169° South 447 514 35,000  Level FlightAware
Thu 10:41:00 PM 31.3746 -70.4913 169° South 447 514 35,000  Level FlightAware
Thu 10:42:00 PM 31.2528 -70.4630 169° South 447 514 35,000  Level FlightAware
Thu 10:43:00 PM 31.1310 -70.4347 169° South 447 514 35,000  Level FlightAware
Thu 10:44:00 PM 31.0092 -70.4065 169° South 447 514 35,000  Level FlightAware
Thu 10:45:00 PM 30.8873 -70.3784 169° South 447 514 35,000  Level FlightAware
Thu 10:46:00 PM 30.7655 -70.3504 169° South 447 514 35,000  Level FlightAware
Thu 10:47:00 PM 30.6437 -70.3224 169° South 447 514 35,000  Level FlightAware
Thu 10:48:00 PM 30.5218 -70.2945 169° South 447 514 35,000  Level FlightAware
Thu 10:49:00 PM 30.4000 -70.2667 169° South 447 514 35,000  Level FlightAware
Thu 10:50:00 PM 30.2774 -70.2388 169° South 447 514 35,000  Level FlightAware
Thu 10:51:00 PM 30.1548 -70.2110 169° South 447 514 35,000  Level FlightAware
Thu 10:52:00 PM 30.0321 -70.1833 169° South 447 514 35,000  Level FlightAware
Thu 10:53:00 PM 29.9095 -70.1556 169° South 447 514 35,000  Level FlightAware
Thu 10:54:00 PM 29.7869 -70.1280 169° South 447 514 35,000  Level FlightAware
Thu 10:55:00 PM 29.6642 -70.1005 169° South 447 514 35,000  Level FlightAware
Thu 10:55:49 PM 30.4000 -70.2667 169° South 446 513 35,000  Level New Oceanic
Thu 10:56:00 PM 29.5416 -70.0730 169° South 447 514 35,000  Level FlightAware
Thu 10:57:00 PM 29.4189 -70.0456 169° South 447 514 35,000  Level FlightAware
Thu 10:58:00 PM 29.2963 -70.0183 169° South 447 514 35,000  Level FlightAware
Thu 10:59:00 PM 29.1736 -69.9911 169° South 447 514 35,000  Level FlightAware
Thu 11:00:00 PM 29.0509 -69.9639 169° South 447 514 35,000  Level FlightAware
Thu 11:01:00 PM 28.9283 -69.9367 169° South 447 514 35,000  Level FlightAware
Thu 11:02:00 PM 29.0509 -69.9639 169° South 446 513 35,000  Level FlightAware
Thu 11:03:00 PM 28.9283 -69.9367 169° South 446 513 35,000  Level FlightAware
Thu 11:04:00 PM 28.8056 -69.9097 169° South 446 513 35,000  Level FlightAware
Thu 11:05:00 PM 28.6829 -69.8827 169° South 446 513 35,000  Level FlightAware
Thu 11:06:00 PM 28.5602 -69.8557 169° South 446 513 35,000  Level FlightAware
Thu 11:07:00 PM 28.4375 -69.8289 169° South 446 513 35,000  Level FlightAware
Thu 11:08:00 PM 28.3148 -69.8020 169° South 446 513 35,000  Level FlightAware
Thu 11:09:00 PM 28.1921 -69.7753 169° South 446 513 35,000  Level FlightAware
Thu 11:10:00 PM 28.0694 -69.7486 169° South 446 513 35,000  Level FlightAware
Thu 11:11:00 PM 27.9467 -69.7220 169° South 446 513 35,000  Level FlightAware
Thu 11:12:00 PM 27.8239 -69.6954 169° South 446 513 35,000  Level FlightAware
Thu 11:13:00 PM 27.7012 -69.6689 169° South 446 513 35,000  Level FlightAware
Thu 11:14:00 PM 27.5785 -69.6424 169° South 446 513 35,000  Level FlightAware
Thu 11:15:00 PM 27.4557 -69.6161 169° South 446 513 35,000  Level FlightAware
Thu 11:16:00 PM 27.3330 -69.5897 169° South 446 513 35,000  Level FlightAware
Thu 11:17:00 PM 27.2103 -69.5634 169° South 446 513 35,000  Level FlightAware
Thu 11:18:00 PM 27.0875 -69.5372 169° South 446 513 35,000  Level FlightAware
Thu 11:19:00 PM 26.9648 -69.5111 169° South 446 513 35,000  Level FlightAware
Thu 11:20:00 PM 26.8420 -69.4850 169° South 446 513 35,000  Level FlightAware
Thu 11:21:00 PM 26.7192 -69.4589 169° South 446 513 35,000  Level FlightAware
Thu 11:22:00 PM 26.5965 -69.4329 169° South 446 513 35,000  Level FlightAware
Thu 11:23:00 PM 26.4737 -69.4070 169° South 446 513 35,000  Level FlightAware
Thu 11:24:00 PM 26.3509 -69.3811 169° South 446 513 35,000  Level FlightAware
Thu 11:25:00 PM 26.2281 -69.3553 169° South 446 513 35,000  Level FlightAware
Thu 11:26:00 PM 26.1053 -69.3295 169° South 446 513 35,000 1,463 Level FlightAware
Thu 11:26:22 PM 26.7167 -69.4500 170° South 449 517 37,000  Climbing New Oceanic
Thu 11:27:00 PM 25.9825 -69.3038 169° South 446 513 35,000 -1,224 Descending FlightAware
Thu 11:28:00 PM 25.8597 -69.2782 169° South 446 513 35,000  Level FlightAware
Thu 11:29:00 PM 25.7369 -69.2525 169° South 446 513 35,000  Level FlightAware
Thu 11:30:00 PM 25.6141 -69.2270 169° South 446 513 35,000  Level FlightAware
Thu 11:31:00 PM 25.4913 -69.2015 169° South 446 513 35,000 1,000 Level FlightAware
Thu 11:32:00 PM 25.3679 -69.1741 170° South 449 517 37,000 1,000 Climbing FlightAware
Thu 11:33:00 PM 25.2453 -69.1494 170° South 449 517 37,000  Level FlightAware
Thu 11:33:39 PM 25.1253 -69.1469 167° South 438 504 37,000  Level Miami Center
Thu 11:34:00 PM 25.1227 -69.1247 170° South 449 517 37,000  Level FlightAware
Thu 11:34:40 PM 25.0003 -69.1111 165° South 453 521 37,000  Level Miami Center
Thu 11:35:00 PM 25.0000 -69.1000 167° South 449 517 37,000  Level FlightAware
Thu 11:35:39 PM 24.8825 -69.0889 170° South 446 513 37,000  Level Miami Center
Thu 11:36:00 PM 24.8830 -69.0709 167° South 449 517 37,000  Level FlightAware
Thu 11:36:39 PM 24.7653 -69.0439 161° South 446 513 37,000  Level Miami Center
Thu 11:37:00 PM 24.7659 -69.0418 167° South 449 517 37,000  Level FlightAware
Thu 11:37:39 PM 24.6444 -69.0058 164° South 446 513 37,000  Level Miami Center
Thu 11:38:00 PM 24.6489 -69.0128 167° South 449 517 37,000  Level FlightAware
Thu 11:38:39 PM 24.5233 -68.9633 162° South 446 513 37,000  Level Miami Center
Thu 11:39:39 PM 24.4003 -68.9233 164° South 452 520 37,000  Level Miami Center
Thu 11:40:41 PM 24.2836 -68.8900 165° South 452 520 37,000  Level Miami Center
Thu 11:41:42 PM 24.1603 -68.8456 162° South 452 520 37,000  Level Miami Center
Thu 11:42:39 PM 24.0394 -68.8078 164° South 452 520 37,000  Level Miami Center
Thu 11:43:40 PM 23.9336 -68.7761 165° South 447 514 37,000  Level Miami Center
Thu 11:44:39 PM 23.8083 -68.7367 164° South 447 514 37,000  Level Miami Center
Thu 11:45:39 PM 23.6875 -68.6992 164° South 447 514 37,000  Level Miami Center
Thu 11:46:41 PM 23.5667 -68.6617 164° South 454 522 37,000  Level Miami Center
Thu 11:48:05 PM 23.3925 -68.6028 163° South 454 522 37,000  Level Miami Center
Thu 11:49:05 PM 23.2800 -68.5694 165° South 449 517 37,000  Level Miami Center
Thu 11:50:05 PM 23.1506 -68.5261 163° South 449 517 37,000  Level Miami Center
Thu 11:51:05 PM 23.0361 -68.4906 164° South 455 524 37,000  Level Miami Center
Thu 11:52:03 PM 22.9153 -68.4536 164° South 446 513 37,000  Level Miami Center
Thu 11:53:03 PM 22.7922 -68.4142 164° South 446 513 37,000  Level Miami Center
Thu 11:54:03 PM 22.6775 -68.3769 163° South 446 513 37,000  Level Miami Center
Thu 11:55:03 PM 22.5483 -68.3381 164° South 464 534 37,000  Level Miami Center
Thu 11:56:03 PM 22.4336 -68.3008 163° South 459 528 37,000  Level Miami Center
Thu 11:57:03 PM 22.3086 -68.2619 164° South 459 528 37,000  Level Miami Center
Thu 11:58:03 PM 22.1919 -68.2250 164° South 451 519 37,000  Level Miami Center
Thu 11:59:03 PM 22.0711 -68.1881 164° South 451 519 37,000  Level Miami Center
Fri 12:00:03 AM 21.9481 -68.1492 164° South 451 519 37,000  Level Miami Center
Fri 12:01:05 AM 21.8294 -68.1147 165° South 445 512 37,000  Level Miami Center
Fri 12:02:05 AM 21.7169 -68.0775 163° South 440 506 37,000  Level Miami Center
Fri 12:03:03 AM 21.5942 -68.0411 165° South 447 514 37,000  Level Miami Center
Fri 12:04:05 AM 21.4733 -68.0044 164° South 457 526 37,000  Level Miami Center
Fri 12:05:03 AM 21.3606 -67.9653 162° South 453 521 37,000  Level Miami Center
Fri 12:06:04 AM 21.2336 -67.9292 165° South 448 516 37,000  Level Miami Center
Fri 12:07:03 AM 21.1150 -67.8928 164° South 448 516 37,000  Level Miami Center
Fri 12:08:05 AM 20.9836 -67.8528 164° South 448 516 37,000  Level Miami Center
Fri 12:09:04 AM 20.8861 -67.8236 164° South 442 509 37,000  Level Miami Center
Fri 12:10:04 AM 20.7617 -67.7944 168° South 442 509 37,000  Level Miami Center
Fri 12:11:03 AM 20.6394 -67.7692 169° South 442 509 37,000  Level Miami Center
Fri 12:12:03 AM 20.5175 -67.7464 170° South 442 509 37,000  Level Miami Center
Fri 12:13:03 AM 20.3997 -67.7211 169° South 441 507 37,000  Level Miami Center
Fri 12:13:33 AM 20.3167 -67.7000 167° South 440 506 37,000 -1,213 Level San Center
Fri 12:14:32 AM 20.2000 -67.6833 172° South 430 495 35,200 -2,650 Descending San Center
Fri 12:15:33 AM 20.1000 -67.6667 171° South 420 483 31,700 -2,826 Descending San Center
Fri 12:16:33 AM 19.9500 -67.6333 168° South 460 529 29,500 -2,350 Descending San Center
Fri 12:17:33 AM 19.8500 -67.6167 171° South 440 506 27,000 -2,200 Descending San Center
Fri 12:18:33 AM 19.7333 -67.5833 165° South 430 495 25,100 -2,000 Descending San Center
Fri 12:19:33 AM 19.6000 -67.5667 173° South 420 483 23,000 -2,100 Descending San Center
Fri 12:20:33 AM 19.4833 -67.5333 165° South 400 460 20,900 -2,250 Descending San Center
Fri 12:21:33 AM 19.3833 -67.5167 171° South 400 460 18,500 -2,182 Descending San Center
Fri 12:22:34 AM 19.2667 -67.5000 172° South 390 449 16,500 -1,884 Descending San Center
Fri 12:23:34 AM 19.1667 -67.4833 171° South 380 437 14,700 -1,900 Descending San Center
Fri 12:24:34 AM 19.0667 -67.4667 171° South 350 403 12,700 -1,900 Descending San Center
Fri 12:25:34 AM 18.9833 -67.4333 159° South 340 391 10,900 -1,350 Descending San Center
Fri 12:26:34 AM 18.8833 -67.4167 171° South 330 380 10,000 -1,050 Descending San Center
Fri 12:27:34 AM 18.8000 -67.4000 169° South 300 345 8,800 -1,240 Descending San Center
Fri 12:28:35 AM 18.7333 -67.4000 180° South 270 311 7,500 -1,200 Descending San Center
Fri 12:29:34 AM 18.6500 -67.3833 169° South 250 288 6,400 -807 Descending San Center
Fri 12:30:34 AM 18.5833 -67.3667 167° South 240 276 5,900 -750 Descending San Center
Fri 12:31:34 AM 18.5333 -67.3500 162° South 210 242 4,900 -893 Descending San Center
Fri 12:32:35 AM 18.4833 -67.3333 162° South 170 196 4,100 -744 Descending San Center
Fri 12:33:35 AM 18.4500 -67.3167 155° Southeast 160 184 3,400 -800 Descending San Center
Fri 12:34:35 AM 18.4500 -67.2667 90° East 190 219 2,500 -850 Descending San Center
Fri 12:35:35 AM 18.4667 -67.2167 71° East 190 219 1,700 -850 Descending San Center
Fri 12:36:35 AM 18.4667 -67.1667 90° East 160 184 800 -900 Descending San Center

Login

Don't have an account? Register now (free) for customized features, flight alerts, and more!